Time;durP1;ratioP1;P1;durP2;ratioP2;P2;SDS_P1;SDS_P2;PMS_P1;PMS_P2;Temp;Humidity;BMP_temperature;BMP_pressure;BME280_temperature;BME280_humidity;BME280_pressure;Samples;Min_cycle;Max_cycle;Signal;HPM_P1;HPM_P2
2021/10/13 00:00:16;;;;;;;2.65;1.85;;;21.60;54.60;;;;;;3120238;28;20050;-63
2021/10/13 00:01:48;;;;;;;2.08;1.42;;;21.60;54.70;;;;;;3121665;28;20049;-63
2021/10/13 00:03:21;;;;;;;2.10;1.50;;;21.60;54.80;;;;;;3134309;28;20049;-63
2021/10/13 00:04:54;;;;;;;2.65;1.60;;;21.60;54.70;;;;;;3133906;28;20056;-63
2021/10/13 00:06:26;;;;;;;2.47;1.42;;;21.60;54.70;;;;;;3134232;28;20049;-63
2021/10/13 00:07:58;;;;;;;2.40;1.40;;;21.60;54.70;;;;;;3142757;28;20041;-63
2021/10/13 00:09:29;;;;;;;2.17;1.55;;;21.60;54.60;;;;;;3146262;28;20049;-63
2021/10/13 00:11:01;;;;;;;2.83;1.52;;;21.50;54.70;;;;;;3146247;28;20056;-64
2021/10/13 00:12:33;;;;;;;2.90;1.60;;;21.60;54.80;;;;;;3141153;28;20057;-63
2021/10/13 00:14:05;;;;;;;3.00;1.70;;;21.60;55.30;;;;;;3133894;28;20052;-64
2021/10/13 00:15:37;;;;;;;2.05;1.50;;;21.60;54.80;;;;;;3133199;28;20049;-64
2021/10/13 00:17:09;;;;;;;2.75;1.80;;;21.60;54.80;;;;;;3135724;28;20560;-63
2021/10/13 00:18:42;;;;;;;2.33;1.70;;;21.50;54.70;;;;;;3136039;28;20060;-63
2021/10/13 00:20:13;;;;;;;2.35;1.60;;;21.60;54.70;;;;;;3133615;28;20040;-64
2021/10/13 00:21:45;;;;;;;2.83;1.58;;;21.60;54.50;;;;;;3146337;28;20052;-63
2021/10/13 00:23:17;;;;;;;2.00;1.35;;;21.60;54.40;;;;;;3146308;28;20052;-63
2021/10/13 00:24:49;;;;;;;3.42;1.80;;;21.60;54.50;;;;;;3143647;28;20048;-63
2021/10/13 00:26:21;;;;;;;3.05;1.65;;;21.60;54.40;;;;;;3134094;28;20060;-63
2021/10/13 00:27:52;;;;;;;1.92;1.50;;;21.60;54.40;;;;;;3134179;28;20049;-63
2021/10/13 00:29:24;;;;;;;2.80;1.50;;;21.60;54.50;;;;;;3142134;28;20045;-63
2021/10/13 00:30:56;;;;;;;2.20;1.60;;;21.60;54.30;;;;;;3133868;28;20045;-63
2021/10/13 00:32:28;;;;;;;2.17;1.35;;;21.70;54.30;;;;;;3134277;28;20049;-63
2021/10/13 00:34:01;;;;;;;4.63;1.75;;;21.60;54.40;;;;;;3137615;28;20106;-64
2021/10/13 00:35:32;;;;;;;;;;;21.60;54.40;;;;;;3146817;28;20063;-63
2021/10/13 00:37:04;;;;;;;1.63;1.20;;;21.60;54.50;;;;;;3144008;28;19928;-63
2021/10/13 00:38:36;;;;;;;2.38;1.45;;;21.60;54.40;;;;;;3133924;28;20557;-63
2021/10/13 00:40:09;;;;;;;3.17;1.55;;;21.60;54.40;;;;;;3125487;28;20044;-63
2021/10/13 00:41:40;;;;;;;2.30;1.33;;;21.60;54.40;;;;;;3121511;28;20060;-63
2021/10/13 00:43:12;;;;;;;2.03;1.40;;;21.60;54.50;;;;;;3126901;28;20052;-63
2021/10/13 00:44:43;;;;;;;2.42;1.50;;;21.60;54.30;;;;;;3133378;28;20045;-63
2021/10/13 00:46:15;;;;;;;2.17;1.50;;;21.60;54.40;;;;;;3132699;28;20063;-64
2021/10/13 00:47:47;;;;;;;1.52;1.23;;;21.60;54.40;;;;;;3134066;28;20052;-63
2021/10/13 00:49:20;;;;;;;2.58;1.40;;;21.60;54.50;;;;;;3146271;28;20044;-63
2021/10/13 00:50:51;;;;;;;2.63;1.63;;;21.60;54.30;;;;;;3135506;28;20460;-64
2021/10/13 00:52:23;;;;;;;2.97;1.70;;;21.60;54.30;;;;;;3132312;28;20068;-63
2021/10/13 00:53:55;;;;;;;2.53;1.40;;;21.60;54.30;;;;;;3130252;28;20048;-64
2021/10/13 00:55:26;;;;;;;1.92;1.30;;;21.60;54.30;;;;;;3133894;28;20044;-63
2021/10/13 00:56:58;;;;;;;1.77;1.40;;;21.60;54.30;;;;;;3133841;28;20053;-63
2021/10/13 00:58:30;;;;;;;1.60;1.45;;;21.60;54.30;;;;;;3138535;28;20060;-63
2021/10/13 01:00:02;;;;;;;1.98;1.45;;;21.60;54.30;;;;;;3130674;28;20055;-63
2021/10/13 01:01:36;;;;;;;1.90;1.30;;;21.60;54.30;;;;;;3120501;28;20045;-63
2021/10/13 01:03:10;;;;;;;1.88;1.30;;;21.60;54.30;;;;;;3123822;28;20060;-63
2021/10/13 01:04:58;;;;;;;3.28;1.73;;;21.60;54.30;;;;;;3145753;28;20052;-63
2021/10/13 01:06:33;;;;;;;2.05;1.50;;;21.60;54.30;;;;;;3133793;28;20064;-63
2021/10/13 01:08:07;;;;;;;2.50;1.38;;;21.60;54.30;;;;;;3133487;28;20093;-63
2021/10/13 01:09:42;;;;;;;2.15;1.38;;;21.60;54.30;;;;;;3121119;28;20522;-63
2021/10/13 01:11:20;;;;;;;2.35;1.30;;;21.60;54.30;;;;;;3146299;28;20242;-63
2021/10/13 01:12:55;;;;;;;2.83;1.30;;;21.60;54.30;;;;;;3146488;28;20052;-63
2021/10/13 01:14:31;;;;;;;1.15;1.05;;;21.60;54.30;;;;;;3135119;28;20048;-63
2021/10/13 01:16:07;;;;;;;2.13;1.40;;;21.60;54.30;;;;;;3133260;28;20048;-63
2021/10/13 01:17:40;;;;;;;1.40;1.25;;;21.60;54.30;;;;;;3133893;28;20068;-63
2021/10/13 01:19:19;;;;;;;4.65;1.17;;;21.60;54.30;;;;;;3126475;28;20103;-63
2021/10/13 01:21:06;;;;;;;1.67;1.20;;;21.60;54.30;;;;;;3121190;28;20084;-64
2021/10/13 01:22:58;;;;;;;2.58;1.48;;;21.60;54.30;;;;;;3134014;28;20509;-63
2021/10/13 01:24:35;;;;;;;2.40;1.38;;;21.60;54.30;;;;;;3133484;28;20044;-63
2021/10/13 01:26:12;;;;;;;2.00;1.45;;;21.60;54.30;;;;;;3133626;28;20053;-63
2021/10/13 01:27:53;;;;;;;1.70;1.30;;;21.60;54.30;;;;;;3133574;28;20045;-63
2021/10/13 01:29:24;;;;;;;1.70;1.25;;;21.60;54.30;;;;;;3133122;28;20555;-63
2021/10/13 01:30:59;;;;;;;1.92;1.20;;;21.60;54.30;;;;;;3132412;28;20112;-63
2021/10/13 01:32:30;;;;;;;1.67;1.40;;;21.60;54.30;;;;;;3135183;28;20079;-63
2021/10/13 01:34:02;;;;;;;1.95;1.40;;;21.60;54.30;;;;;;3145667;28;20379;-63
2021/10/13 01:35:35;;;;;;;1.95;1.02;;;21.60;54.30;;;;;;3144495;28;20048;-63
2021/10/13 01:37:08;;;;;;;1.27;1.17;;;21.60;54.20;;;;;;3133719;28;20049;-63
2021/10/13 01:38:42;;;;;;;1.98;1.30;;;21.60;54.20;;;;;;3135282;28;20086;-63
2021/10/13 01:40:14;;;;;;;2.17;1.25;;;21.60;54.20;;;;;;3121519;28;20045;-63
2021/10/13 01:41:46;;;;;;;1.15;0.93;;;21.60;54.30;;;;;;3121040;28;20041;-63
2021/10/13 01:43:19;;;;;;;2.20;1.25;;;21.50;54.20;;;;;;3123909;28;20076;-63
2021/10/13 01:44:53;;;;;;;1.70;1.33;;;21.60;54.30;;;;;;3145471;28;20791;-63
2021/10/13 01:46:24;;;;;;;1.70;1.20;;;21.50;54.20;;;;;;3144000;28;20526;-63
2021/10/13 01:47:56;;;;;;;2.55;1.45;;;21.60;54.20;;;;;;3148326;28;20512;-63
2021/10/13 01:49:28;;;;;;;1.42;1.27;;;21.60;54.20;;;;;;3147533;28;20045;-63
2021/10/13 01:51:00;;;;;;;1.70;1.20;;;21.60;54.20;;;;;;3145712;28;20048;-63
2021/10/13 01:52:31;;;;;;;1.30;1.05;;;21.50;54.20;;;;;;3133338;28;20057;-63
2021/10/13 01:54:03;;;;;;;2.08;1.20;;;21.60;54.20;;;;;;3123081;28;20545;-63
2021/10/13 01:55:35;;;;;;;2.17;1.20;;;21.60;54.20;;;;;;3123257;28;20053;-63
2021/10/13 01:57:06;;;;;;;2.25;1.13;;;21.60;54.20;;;;;;3136506;28;20048;-63
2021/10/13 01:58:39;;;;;;;1.13;1.00;;;21.50;54.20;;;;;;3135800;28;20053;-63
2021/10/13 02:00:12;;;;;;;1.55;1.17;;;21.50;54.20;;;;;;3132000;28;20497;-63
2021/10/13 02:01:44;;;;;;;1.70;1.10;;;21.60;54.20;;;;;;3123059;28;20129;-63
2021/10/13 02:03:16;;;;;;;1.40;1.10;;;21.60;54.10;;;;;;3127727;28;20064;-63
2021/10/13 02:04:47;;;;;;;2.42;1.30;;;21.60;54.30;;;;;;3135022;28;20056;-63
2021/10/13 02:06:19;;;;;;;1.38;1.10;;;21.50;54.20;;;;;;3135976;28;20057;-63
2021/10/13 02:07:51;;;;;;;2.13;1.20;;;21.50;54.30;;;;;;3135572;28;20052;-63
2021/10/13 02:09:24;;;;;;;1.23;1.10;;;21.60;54.30;;;;;;3145660;28;20044;-63
2021/10/13 02:10:56;;;;;;;2.08;1.20;;;21.50;54.20;;;;;;3147600;28;20052;-63
2021/10/13 02:12:28;;;;;;;2.05;1.02;;;21.50;54.20;;;;;;3148366;28;20048;-63
2021/10/13 02:14:02;;;;;;;1.58;1.00;;;21.50;54.20;;;;;;3147201;28;20056;-63
2021/10/13 02:15:34;;;;;;;2.17;1.23;;;21.50;54.30;;;;;;3147123;28;20045;-63
2021/10/13 02:17:07;;;;;;;2.20;1.00;;;21.50;54.10;;;;;;3148055;28;20481;-63
2021/10/13 02:18:38;;;;;;;2.00;1.23;;;21.60;54.10;;;;;;3142867;28;20044;-63
2021/10/13 02:20:10;;;;;;;1.35;1.13;;;21.50;54.20;;;;;;3122125;28;20076;-63
2021/10/13 02:21:42;;;;;;;2.50;1.30;;;21.50;54.20;;;;;;3122884;28;20045;-63
2021/10/13 02:23:14;;;;;;;1.27;1.10;;;21.50;54.20;;;;;;3124889;28;20406;-63
2021/10/13 02:24:47;;;;;;;1.40;1.10;;;21.50;54.10;;;;;;3127995;28;20300;-63
2021/10/13 02:26:22;;;;;;;2.58;1.08;;;21.50;54.10;;;;;;3125623;28;20050;-63
2021/10/13 02:27:57;;;;;;;1.40;1.15;;;21.50;54.20;;;;;;3123315;28;20418;-63
2021/10/13 02:29:30;;;;;;;1.55;1.08;;;21.50;54.20;;;;;;3140272;28;20421;-63
2021/10/13 02:31:02;;;;;;;1.35;1.20;;;21.50;54.20;;;;;;3146249;28;20047;-63
2021/10/13 02:32:33;;;;;;;1.50;1.20;;;21.50;54.20;;;;;;3147627;28;20044;-63
2021/10/13 02:34:05;;;;;;;1.50;1.10;;;21.50;54.20;;;;;;3138752;28;20067;-63
2021/10/13 02:35:37;;;;;;;2.80;1.15;;;21.50;54.10;;;;;;3123158;28;20061;-63
2021/10/13 02:37:09;;;;;;;1.30;1.20;;;21.60;54.00;;;;;;3125975;28;20048;-63
2021/10/13 02:38:40;;;;;;;2.00;1.10;;;21.60;54.00;;;;;;3137014;28;20053;-63
2021/10/13 02:40:11;;;;;;;1.33;1.17;;;21.50;54.00;;;;;;3146608;28;20044;-63
2021/10/13 02:41:43;;;;;;;1.67;0.90;;;21.50;54.00;;;;;;3147793;28;20051;-63
2021/10/13 02:43:14;;;;;;;1.00;0.90;;;21.50;54.00;;;;;;3147513;28;20075;-63
2021/10/13 02:44:47;;;;;;;3.83;1.10;;;21.50;54.00;;;;;;3146851;28;20040;-63
2021/10/13 02:46:19;;;;;;;;;;;21.50;54.20;;;;;;3147174;28;20505;-63
2021/10/13 02:47:53;;;;;;;1.77;1.10;;;21.50;54.20;;;;;;3147887;28;20049;-63
2021/10/13 02:49:33;;;;;;;1.52;1.00;;;21.50;54.10;;;;;;3138200;28;20045;-63
2021/10/13 02:51:07;;;;;;;1.63;1.08;;;21.50;54.20;;;;;;3134794;28;20060;-63
2021/10/13 02:52:41;;;;;;;1.63;1.00;;;21.50;54.00;;;;;;3131750;28;20107;-63
2021/10/13 02:54:15;;;;;;;1.33;0.90;;;21.50;54.20;;;;;;3125644;28;20052;-63
2021/10/13 02:55:50;;;;;;;1.10;1.00;;;21.40;54.20;;;;;;3122666;28;20224;-63
2021/10/13 02:57:22;;;;;;;1.88;1.10;;;21.40;54.20;;;;;;3122604;28;20061;-63
2021/10/13 02:59:00;;;;;;;1.35;0.90;;;21.50;54.20;;;;;;3130372;28;20067;-63
2021/10/13 03:00:34;;;;;;;1.65;1.20;;;21.50;54.20;;;;;;3133888;28;20045;-63
2021/10/13 03:02:09;;;;;;;1.48;1.00;;;21.50;54.20;;;;;;3134899;28;20087;-63
2021/10/13 03:03:46;;;;;;;1.13;0.98;;;21.50;54.20;;;;;;3134964;28;20502;-63
2021/10/13 03:05:18;;;;;;;1.85;1.27;;;21.40;54.10;;;;;;3134477;28;20510;-63
2021/10/13 03:06:52;;;;;;;1.37;1.00;;;21.50;54.10;;;;;;3135059;28;20045;-63
2021/10/13 03:08:24;;;;;;;1.58;1.20;;;21.50;54.10;;;;;;3134740;28;20124;-63
2021/10/13 03:09:56;;;;;;;2.50;1.30;;;21.40;54.10;;;;;;3121629;28;20053;-63
2021/10/13 03:11:28;;;;;;;1.35;1.00;;;21.50;54.10;;;;;;3125369;28;20447;-63
2021/10/13 03:12:59;;;;;;;1.73;1.17;;;21.40;54.00;;;;;;3135055;28;20049;-63
2021/10/13 03:14:30;;;;;;;2.10;0.90;;;21.40;54.20;;;;;;3134478;28;20059;-63
2021/10/13 03:16:04;;;;;;;2.40;1.05;;;21.50;54.00;;;;;;3132860;28;20033;-63
2021/10/13 03:17:36;;;;;;;0.98;0.88;;;21.50;54.10;;;;;;3128413;28;20049;-63
2021/10/13 03:19:07;;;;;;;1.58;0.98;;;21.40;54.20;;;;;;3124627;28;20046;-63
2021/10/13 03:20:39;;;;;;;1.50;1.10;;;21.40;54.20;;;;;;3122063;28;20056;-63
2021/10/13 03:22:11;;;;;;;1.42;0.98;;;21.40;54.20;;;;;;3133327;28;20045;-63
2021/10/13 03:23:43;;;;;;;3.42;1.17;;;21.40;54.10;;;;;;3134794;28;20518;-63
2021/10/13 03:25:21;;;;;;;1.88;1.00;;;21.40;54.00;;;;;;3134242;28;20457;-63
2021/10/13 03:26:53;;;;;;;2.10;1.20;;;21.40;54.00;;;;;;3134686;28;20052;-63
2021/10/13 03:28:24;;;;;;;3.47;1.17;;;21.40;54.10;;;;;;3134393;28;20437;-63
2021/10/13 03:29:56;;;;;;;1.00;0.90;;;21.40;54.20;;;;;;3133982;28;20510;-63
2021/10/13 03:31:29;;;;;;;1.48;0.90;;;21.40;54.20;;;;;;3133585;28;20041;-63
2021/10/13 03:33:01;;;;;;;;;;;21.50;54.00;;;;;;3134858;28;20052;-63
2021/10/13 03:34:32;;;;;;;2.75;1.10;;;21.40;54.10;;;;;;3134253;28;19925;-63
2021/10/13 03:36:04;;;;;;;1.30;0.85;;;21.40;54.00;;;;;;3133374;28;20063;-63
2021/10/13 03:37:36;;;;;;;1.95;1.20;;;21.40;54.00;;;;;;3123525;28;20509;-63
2021/10/13 03:39:08;;;;;;;1.30;0.90;;;21.40;54.10;;;;;;3129915;28;20417;-63
2021/10/13 03:40:39;;;;;;;1.40;0.93;;;21.40;54.10;;;;;;3134130;28;20045;-63
2021/10/13 03:42:11;;;;;;;2.00;1.00;;;21.40;54.10;;;;;;3134666;28;20410;-63
2021/10/13 03:43:49;;;;;;;1.88;0.80;;;21.40;54.20;;;;;;3134725;28;20049;-63
2021/10/13 03:45:22;;;;;;;1.38;1.08;;;21.40;54.20;;;;;;3133235;28;20133;-63
2021/10/13 03:46:55;;;;;;;1.40;1.00;;;21.40;54.20;;;;;;3134314;28;20057;-63
2021/10/13 03:48:27;;;;;;;1.38;0.90;;;21.40;54.20;;;;;;3134492;28;20049;-63
2021/10/13 03:49:59;;;;;;;1.30;1.00;;;21.40;54.10;;;;;;3133414;28;20047;-63
2021/10/13 03:51:30;;;;;;;1.35;1.05;;;21.40;54.10;;;;;;3134192;28;20052;-63
2021/10/13 03:53:02;;;;;;;1.50;1.10;;;21.40;54.00;;;;;;3127603;28;20140;-63
2021/10/13 03:54:34;;;;;;;1.48;1.10;;;21.50;53.90;;;;;;3121791;28;20434;-63
2021/10/13 03:56:05;;;;;;;1.02;0.90;;;21.50;53.80;;;;;;3122322;28;20422;-63
2021/10/13 03:57:37;;;;;;;1.35;0.90;;;21.60;53.80;;;;;;3128619;28;20049;-63
2021/10/13 03:59:09;;;;;;;0.98;0.73;;;21.60;53.70;;;;;;3127845;28;20049;-63
2021/10/13 04:00:40;;;;;;;2.03;1.10;;;21.60;53.60;;;;;;3120752;28;20487;-63
2021/10/13 04:02:14;;;;;;;2.50;1.00;;;21.60;53.40;;;;;;3130591;28;20402;-63
2021/10/13 04:03:45;;;;;;;1.60;0.90;;;21.70;53.40;;;;;;3134232;28;20053;-63
2021/10/13 04:05:17;;;;;;;1.70;1.00;;;21.70;53.30;;;;;;3133689;28;20053;-63
2021/10/13 04:06:48;;;;;;;1.02;0.80;;;21.70;53.30;;;;;;3134146;28;20053;-63
2021/10/13 04:08:19;;;;;;;1.92;1.15;;;21.70;53.30;;;;;;3133950;28;20183;-63
2021/10/13 04:09:51;;;;;;;1.40;0.90;;;21.80;53.30;;;;;;3132520;28;20063;-63
2021/10/13 04:11:23;;;;;;;1.35;0.90;;;21.70;53.20;;;;;;3134324;28;20060;-63
2021/10/13 04:12:54;;;;;;;1.45;0.90;;;21.80;53.20;;;;;;3133792;28;20052;-63
2021/10/13 04:14:26;;;;;;;1.08;0.95;;;21.80;53.00;;;;;;3133445;28;20053;-63
2021/10/13 04:15:58;;;;;;;1.42;0.80;;;21.80;52.90;;;;;;3133468;28;20041;-63
2021/10/13 04:17:33;;;;;;;1.15;0.90;;;21.90;52.90;;;;;;3129183;28;20046;-63
2021/10/13 04:19:05;;;;;;;2.92;0.82;;;21.90;52.80;;;;;;3122281;28;20046;-63
2021/10/13 04:20:36;;;;;;;2.90;1.10;;;21.90;52.80;;;;;;3121192;28;20049;-63
2021/10/13 04:22:08;;;;;;;0.95;0.70;;;21.90;52.70;;;;;;3123518;28;20049;-63
2021/10/13 04:23:40;;;;;;;1.88;0.95;;;21.90;52.70;;;;;;3134162;28;20045;-63
2021/10/13 04:25:11;;;;;;;1.40;0.80;;;22.00;52.80;;;;;;3133706;28;20045;-63
2021/10/13 04:26:43;;;;;;;1.63;0.80;;;22.00;52.70;;;;;;3134115;28;20099;-63
2021/10/13 04:28:15;;;;;;;1.27;1.00;;;22.00;52.60;;;;;;3134221;28;20490;-64
2021/10/13 04:29:46;;;;;;;3.63;1.00;;;22.00;52.50;;;;;;3132470;28;20056;-63
2021/10/13 04:31:18;;;;;;;1.25;0.88;;;22.00;52.50;;;;;;3132972;28;20045;-63
2021/10/13 04:32:51;;;;;;;2.30;1.00;;;22.00;52.50;;;;;;3133729;28;20045;-63
2021/10/13 04:34:22;;;;;;;1.13;0.77;;;22.10;52.40;;;;;;3133703;28;20052;-63
2021/10/13 04:35:53;;;;;;;2.05;1.13;;;22.10;52.50;;;;;;3134006;28;20044;-63
2021/10/13 04:37:25;;;;;;;1.85;1.17;;;22.10;52.40;;;;;;3133546;28;20144;-63
2021/10/13 04:38:57;;;;;;;1.35;0.90;;;22.10;52.40;;;;;;3130110;28;20414;-63
2021/10/13 04:40:29;;;;;;;1.02;0.70;;;22.10;52.30;;;;;;3134879;28;20079;-63
2021/10/13 04:42:00;;;;;;;1.13;1.00;;;22.10;52.20;;;;;;3133961;28;20102;-64
2021/10/13 04:43:32;;;;;;;1.13;0.90;;;22.10;52.20;;;;;;3144318;28;20048;-63
2021/10/13 04:45:04;;;;;;;1.17;0.90;;;22.10;52.20;;;;;;3145981;28;20101;-63
2021/10/13 04:46:36;;;;;;;0.98;0.88;;;22.10;52.30;;;;;;3145925;28;20632;-63
2021/10/13 04:48:09;;;;;;;1.73;0.80;;;22.20;52.30;;;;;;3139389;28;20068;-63
2021/10/13 04:49:41;;;;;;;5.22;0.90;;;22.20;52.30;;;;;;3134927;28;20055;-63
2021/10/13 04:51:12;;;;;;;3.00;0.98;;;22.20;52.30;;;;;;3146373;28;20048;-63
2021/10/13 04:52:44;;;;;;;1.92;0.90;;;22.20;52.40;;;;;;3142853;28;20045;-63
2021/10/13 04:54:17;;;;;;;4.03;1.10;;;22.10;52.50;;;;;;3145805;28;20091;-63
2021/10/13 04:55:49;;;;;;;2.63;0.88;;;22.10;52.60;;;;;;3146347;28;20092;-63
2021/10/13 04:57:23;;;;;;;3.75;1.15;;;22.10;52.60;;;;;;3146094;28;20049;-63
2021/10/13 04:58:55;;;;;;;6.90;1.20;;;22.20;52.70;;;;;;3128832;28;20128;-63
2021/10/13 05:00:26;;;;;;;8.90;1.00;;;22.20;52.80;;;;;;3126411;28;20052;-63
2021/10/13 05:01:58;;;;;;;3.78;1.27;;;22.20;53.50;;;;;;3123854;28;20045;-63
2021/10/13 05:03:31;;;;;;;7.05;1.42;;;22.20;53.10;;;;;;3136070;28;20084;-63
2021/10/13 05:05:03;;;;;;;6.15;1.40;;;22.20;53.00;;;;;;3120838;28;20418;-63
2021/10/13 05:06:35;;;;;;;7.57;1.65;;;22.20;53.50;;;;;;3126728;28;20448;-64
2021/10/13 05:08:07;;;;;;;11.32;1.77;;;22.20;53.70;;;;;;3133418;28;20049;-64
2021/10/13 05:09:39;;;;;;;12.38;1.92;;;22.20;54.20;;;;;;3132981;28;20049;-64
2021/10/13 05:11:10;;;;;;;6.90;1.70;;;22.10;54.50;;;;;;3133677;28;20045;-64
2021/10/13 05:12:42;;;;;;;13.02;1.90;;;22.10;54.50;;;;;;3133231;28;20052;-64
2021/10/13 05:14:14;;;;;;;17.00;2.38;;;22.20;54.60;;;;;;3133173;28;20045;-64
2021/10/13 05:15:46;;;;;;;12.95;2.30;;;22.20;54.60;;;;;;3135284;28;20123;-64
2021/10/13 05:17:18;;;;;;;15.75;2.78;;;22.20;54.70;;;;;;3145367;28;20391;-64
2021/10/13 05:18:50;;;;;;;17.67;3.77;;;22.10;54.90;;;;;;3140400;28;20086;-60
2021/10/13 05:20:21;;;;;;;22.27;3.22;;;22.10;55.20;;;;;;3139095;28;20372;-62
2021/10/13 05:21:53;;;;;;;14.98;3.15;;;22.10;55.40;;;;;;3148079;28;20060;-62
2021/10/13 05:23:25;;;;;;;51.38;5.82;;;22.20;55.30;;;;;;3128742;28;20417;-62
2021/10/13 05:24:57;;;;;;;33.28;4.70;;;22.20;55.10;;;;;;3135821;28;20052;-62
2021/10/13 05:26:29;;;;;;;46.08;5.90;;;22.20;55.00;;;;;;3136128;28;20486;-61
2021/10/13 05:28:00;;;;;;;30.27;5.13;;;22.20;54.70;;;;;;3136045;28;20574;-62
2021/10/13 05:29:32;;;;;;;40.35;5.72;;;22.20;54.50;;;;;;3135197;28;20064;-62
2021/10/13 05:31:04;;;;;;;35.10;4.60;;;22.20;53.90;;;;;;3134762;28;20044;-62
2021/10/13 05:32:35;;;;;;;25.38;4.75;;;22.10;53.00;;;;;;3136434;28;20041;-62
2021/10/13 05:34:08;;;;;;;19.70;4.10;;;22.10;52.20;;;;;;3136105;28;20087;-64
2021/10/13 05:35:40;;;;;;;25.00;4.38;;;22.00;51.60;;;;;;3132561;28;20307;-63
2021/10/13 05:37:12;;;;;;;23.90;3.95;;;22.00;50.80;;;;;;3135910;28;20410;-63
2021/10/13 05:38:42;;;;;;;13.65;3.88;;;22.00;50.50;;;;;;3147346;28;20425;-63
2021/10/13 05:40:14;;;;;;;14.50;2.67;;;22.00;50.00;;;;;;3146506;28;20056;-63
2021/10/13 05:41:46;;;;;;;21.02;2.92;;;21.90;49.50;;;;;;3146922;28;20059;-63
2021/10/13 05:43:17;;;;;;;12.50;3.10;;;21.80;48.70;;;;;;3148295;28;20174;-64
2021/10/13 05:44:49;;;;;;;14.63;2.60;;;21.80;47.80;;;;;;3144783;28;20048;-65
2021/10/13 05:46:21;;;;;;;8.27;2.30;;;21.70;46.90;;;;;;3155688;28;20139;-64
2021/10/13 05:47:54;;;;;;;9.20;2.47;;;21.60;46.30;;;;;;3138128;28;20049;-64
2021/10/13 05:49:27;;;;;;;10.35;2.33;;;21.40;45.60;;;;;;3135047;28;20098;-65
2021/10/13 05:50:59;;;;;;;7.68;2.10;;;21.30;43.70;;;;;;3134190;28;20057;-64
2021/10/13 05:52:31;;;;;;;6.75;2.00;;;21.30;42.40;;;;;;3140712;28;20048;-64
2021/10/13 05:54:04;;;;;;;3.88;1.95;;;21.50;41.60;;;;;;3130058;28;20049;-65
2021/10/13 05:55:36;;;;;;;6.15;1.67;;;21.60;41.30;;;;;;3135909;28;20076;-64
2021/10/13 05:57:08;;;;;;;7.10;1.92;;;21.60;40.90;;;;;;3130286;28;20045;-64
2021/10/13 05:58:40;;;;;;;2.75;1.60;;;21.70;40.70;;;;;;3130462;28;20490;-64
2021/10/13 06:00:14;;;;;;;9.25;2.08;;;21.70;40.50;;;;;;3132981;28;20044;-64
2021/10/13 06:01:46;;;;;;;8.68;2.00;;;21.70;40.30;;;;;;3143996;28;20056;-66
2021/10/13 06:03:18;;;;;;;5.60;2.15;;;21.80;40.40;;;;;;3134590;28;20387;-66
2021/10/13 06:04:51;;;;;;;5.07;1.85;;;21.80;40.30;;;;;;3131085;28;20429;-67
2021/10/13 06:06:23;;;;;;;4.82;1.95;;;21.80;40.00;;;;;;3135367;28;20056;-67
2021/10/13 06:07:54;;;;;;;7.57;1.70;;;21.90;39.60;;;;;;3137967;28;20053;-67
2021/10/13 06:09:27;;;;;;;4.07;1.70;;;21.90;39.30;;;;;;3142772;28;20664;-67
2021/10/13 06:10:58;;;;;;;2.80;1.58;;;21.90;39.30;;;;;;3139661;28;20049;-66
2021/10/13 06:12:30;;;;;;;4.13;1.70;;;21.90;39.10;;;;;;3142224;28;20053;-67
2021/10/13 06:14:01;;;;;;;4.00;1.50;;;21.90;39.30;;;;;;3136085;28;20049;-67
2021/10/13 06:15:35;;;;;;;7.40;2.05;;;21.90;39.40;;;;;;3125506;28;20047;-67
2021/10/13 06:17:07;;;;;;;7.13;1.60;;;21.80;39.50;;;;;;3135687;28;20055;-67
2021/10/13 06:18:39;;;;;;;5.82;1.30;;;21.80;39.50;;;;;;3125397;28;20053;-66
2021/10/13 06:20:12;;;;;;;2.55;1.50;;;21.70;39.60;;;;;;3124195;28;20045;-67
2021/10/13 06:21:44;;;;;;;2.75;1.50;;;21.70;39.50;;;;;;3135193;28;20417;-67
2021/10/13 06:23:15;;;;;;;3.45;1.40;;;21.70;39.40;;;;;;3134465;28;20429;-66
2021/10/13 06:24:47;;;;;;;3.33;1.38;;;21.70;39.40;;;;;;3129468;28;20053;-66
2021/10/13 06:26:20;;;;;;;7.13;1.60;;;21.70;39.40;;;;;;3136156;28;20059;-67
2021/10/13 06:27:52;;;;;;;3.97;1.40;;;21.70;39.50;;;;;;3139900;28;20059;-66
2021/10/13 06:29:24;;;;;;;7.70;1.80;;;21.80;39.40;;;;;;3122401;28;20056;-67
2021/10/13 06:30:55;;;;;;;4.70;1.60;;;21.90;39.50;;;;;;3125620;28;20053;-67
2021/10/13 06:32:27;;;;;;;7.22;1.60;;;21.80;39.40;;;;;;3133283;28;20049;-67
2021/10/13 06:33:59;;;;;;;4.68;1.40;;;21.90;39.50;;;;;;3131286;28;20436;-67
2021/10/13 06:35:32;;;;;;;10.52;1.55;;;21.90;39.30;;;;;;3132273;28;21444;-66
2021/10/13 06:37:04;;;;;;;3.53;1.60;;;21.90;39.40;;;;;;3129728;28;20045;-66
2021/10/13 06:38:36;;;;;;;5.37;1.43;;;21.90;39.30;;;;;;3133136;28;20052;-66
2021/10/13 06:40:08;;;;;;;4.23;1.60;;;21.70;39.00;;;;;;3134358;28;20295;-66
2021/10/13 06:41:40;;;;;;;4.43;1.65;;;21.70;38.90;;;;;;3142611;28;20053;-66
2021/10/13 06:43:12;;;;;;;5.47;1.33;;;21.60;38.70;;;;;;3146756;28;20048;-66
2021/10/13 06:44:43;;;;;;;2.80;1.70;;;21.50;38.30;;;;;;3146483;28;20489;-66
2021/10/13 06:46:15;;;;;;;2.10;1.40;;;21.50;38.00;;;;;;3146085;28;20501;-66
2021/10/13 06:47:47;;;;;;;4.45;1.58;;;21.60;37.80;;;;;;3147959;28;20413;-66
2021/10/13 06:49:18;;;;;;;4.28;1.30;;;21.50;37.80;;;;;;3146251;28;20055;-66
2021/10/13 06:50:51;;;;;;;2.53;1.63;;;21.40;37.70;;;;;;3145514;28;20048;-66
2021/10/13 06:52:23;;;;;;;4.28;1.50;;;21.50;37.60;;;;;;3143678;28;20103;-66
2021/10/13 06:53:55;;;;;;;3.83;1.40;;;21.50;37.60;;;;;;3146894;28;20048;-67
2021/10/13 06:55:26;;;;;;;3.47;1.67;;;21.40;37.50;;;;;;3134857;28;20429;-66
2021/10/13 06:56:58;;;;;;;4.32;1.60;;;21.40;37.50;;;;;;3144135;28;20401;-66
2021/10/13 06:58:30;;;;;;;2.85;1.40;;;21.50;37.30;;;;;;3130839;28;20053;-66
2021/10/13 07:00:01;;;;;;;1.95;1.42;;;21.70;37.50;;;;;;3140702;28;20079;-66
2021/10/13 07:01:33;;;;;;;3.95;1.48;;;21.80;37.40;;;;;;3135019;28;20044;-66
2021/10/13 07:03:05;;;;;;;1.80;1.30;;;21.90;37.60;;;;;;3125459;28;20140;-66
2021/10/13 07:04:37;;;;;;;4.35;1.42;;;21.90;37.90;;;;;;3125703;28;20302;-66
2021/10/13 07:06:10;;;;;;;3.20;1.38;;;22.00;37.80;;;;;;3136738;28;20075;-66
2021/10/13 07:07:43;;;;;;;5.30;1.30;;;22.10;37.80;;;;;;3136545;28;20139;-66
2021/10/13 07:09:15;;;;;;;4.28;1.30;;;22.10;37.90;;;;;;3139787;28;20084;-66
2021/10/13 07:10:47;;;;;;;2.28;1.40;;;22.20;37.90;;;;;;3128519;28;20137;-66
2021/10/13 07:12:19;;;;;;;4.47;1.67;;;22.20;37.90;;;;;;3132882;28;20045;-66
2021/10/13 07:13:50;;;;;;;3.85;1.65;;;22.10;37.90;;;;;;3134853;28;20429;-66
2021/10/13 07:15:22;;;;;;;4.68;1.85;;;21.90;38.20;;;;;;3141888;28;20049;-66
2021/10/13 07:16:54;;;;;;;4.17;1.50;;;21.90;38.50;;;;;;3142783;28;20135;-66
2021/10/13 07:18:26;;;;;;;4.38;1.50;;;21.90;38.70;;;;;;3142677;28;20390;-66
2021/10/13 07:19:59;;;;;;;3.35;1.33;;;21.90;39.00;;;;;;3121789;28;20053;-66
2021/10/13 07:21:32;;;;;;;5.18;2.13;;;21.90;39.20;;;;;;3138204;28;20553;-66
2021/10/13 07:23:06;;;;;;;3.00;1.63;;;21.90;39.30;;;;;;3146981;28;20056;-66
2021/10/13 07:24:38;;;;;;;4.88;1.70;;;21.90;39.40;;;;;;3145816;28;20052;-66
2021/10/13 07:26:09;;;;;;;2.80;1.60;;;21.90;39.30;;;;;;3144234;28;20049;-66
2021/10/13 07:27:41;;;;;;;4.28;1.55;;;21.90;39.30;;;;;;3147090;28;20351;-66
2021/10/13 07:29:13;;;;;;;3.53;1.45;;;22.00;39.30;;;;;;3139052;28;20059;-66
2021/10/13 07:30:45;;;;;;;5.68;1.50;;;21.90;39.60;;;;;;3139908;28;20429;-66
2021/10/13 07:32:17;;;;;;;2.28;1.40;;;22.00;39.70;;;;;;3124522;28;20049;-66
2021/10/13 07:33:49;;;;;;;7.75;1.58;;;22.20;39.50;;;;;;3132804;28;20387;-64
2021/10/13 07:35:21;;;;;;;7.00;1.40;;;22.10;39.60;;;;;;3134009;28;20291;-65
2021/10/13 07:36:55;;;;;;;;;;;22.10;39.90;;;;;;3141465;28;20051;-64
2021/10/13 07:38:26;;;;;;;2.67;1.50;;;21.90;40.30;;;;;;3134355;28;19928;-64
2021/10/13 07:39:58;;;;;;;4.05;1.50;;;21.70;40.40;;;;;;3137256;28;20040;-64
2021/10/13 07:41:30;;;;;;;38.75;3.03;;;21.60;40.50;;;;;;3144944;28;20056;-64
2021/10/13 07:43:01;;;;;;;36.65;4.10;;;21.40;40.90;;;;;;3144984;28;20494;-65
2021/10/13 07:44:33;;;;;;;54.20;3.80;;;21.30;41.30;;;;;;3141898;28;20052;-66
2021/10/13 07:46:05;;;;;;;35.28;3.10;;;21.30;41.60;;;;;;3140387;28;20037;-66
2021/10/13 07:47:37;;;;;;;38.42;3.30;;;21.40;41.60;;;;;;3138344;28;20498;-66
2021/10/13 07:49:09;;;;;;;15.95;2.30;;;21.40;41.50;;;;;;3123643;28;20052;-66
2021/10/13 07:50:41;;;;;;;28.52;2.88;;;21.50;41.40;;;;;;3126492;28;20060;-66
2021/10/13 07:52:14;;;;;;;16.13;2.53;;;21.50;41.30;;;;;;3138185;28;20045;-66
2021/10/13 07:53:46;;;;;;;;;;;21.50;41.20;;;;;;3131358;28;20315;-66
2021/10/13 07:55:17;;;;;;;14.75;1.70;;;21.40;41.40;;;;;;3133381;28;19945;-66
2021/10/13 07:56:49;;;;;;;6.28;1.73;;;21.40;41.20;;;;;;3134015;28;20045;-66
2021/10/13 07:58:21;;;;;;;10.07;1.58;;;21.50;41.20;;;;;;3132535;28;20052;-66
2021/10/13 07:59:53;;;;;;;14.02;1.67;;;21.50;41.20;;;;;;3125877;28;20053;-66
2021/10/13 08:01:24;;;;;;;9.60;1.60;;;21.40;41.30;;;;;;3130584;28;20045;-66